Time;durP1;ratioP1;P1;durP2;ratioP2;P2;SDS_P1;SDS_P2;PMS_P1;PMS_P2;Temp;Humidity;BMP_temperature;BMP_pressure;BME280_temperature;BME280_humidity;BME280_pressure;Samples;Min_cycle;Max_cycle;Signal;HPM_P1;HPM_P2
2022/12/29 00:02:19;;;;;;;18.60;10.10;;;;;;;5.15;100.00;100863.44;5013475;28;20529;-71
2022/12/29 00:04:44;;;;;;;17.67;9.85;;;;;;;4.74;100.00;100784.19;5012564;28;20501;-72
2022/12/29 00:07:10;;;;;;;18.70;9.52;;;;;;;5.45;100.00;100870.41;5031070;28;20041;-71
2022/12/29 00:09:36;;;;;;;16.38;10.15;;;;;;;4.98;100.00;100765.88;5030813;28;20041;-71
2022/12/29 00:12:03;;;;;;;19.83;9.63;;;;;;;5.83;100.00;100868.13;5030447;28;20077;-70
2022/12/29 00:17:14;;;;;;;19.02;10.68;;;;;;;5.54;100.00;100857.88;5030543;28;20052;-71
2022/12/29 00:36:18;;;;;;;26.35;15.80;;;;;;;5.55;100.00;100866.25;5034076;28;20573;-71
2022/12/29 00:44:17;;;;;;;21.52;11.43;;;;;;;5.43;100.00;100856.94;5033558;28;20091;-71
2022/12/29 00:46:43;;;;;;;20.95;11.05;;;;;;;5.27;100.00;100825.75;5016013;28;20124;-71
2022/12/29 00:52:01;;;;;;;17.15;10.23;;;;;;;4.88;100.00;100786.81;5034027;28;20123;-71
2022/12/29 00:54:29;;;;;;;17.52;9.52;;;;;;;5.62;100.00;100868.00;5033931;28;20077;-71
2022/12/29 00:56:54;;;;;;;15.68;9.30;;;;;;;5.18;100.00;100805.53;5033769;28;20071;-74
2022/12/29 00:59:20;;;;;;;16.30;8.30;;;;;;;5.55;100.00;100851.97;5033176;28;20120;-71
2022/12/29 01:01:46;;;;;;;16.25;8.65;;;;;;;5.54;100.00;100869.63;5032992;28;20464;-70
2022/12/29 01:04:12;;;;;;;15.95;8.18;;;;;;;5.52;100.00;100868.78;5015587;28;20419;-70
2022/12/29 01:06:39;;;;;;;16.23;9.20;;;;;;;4.98;100.00;100730.63;5033508;28;20049;-70
2022/12/29 01:11:50;;;;;;;14.43;8.82;;;;;;;5.48;100.00;100811.59;5033270;28;20111;-70
2022/12/29 01:14:16;;;;;;;17.20;8.77;;;;;;;5.07;100.00;100781.91;5033320;28;20459;-71
2022/12/29 01:16:41;;;;;;;16.60;9.40;;;;;;;5.73;100.00;100843.66;5032664;28;20042;-71
2022/12/29 01:19:07;;;;;;;17.13;9.43;;;;;;;5.53;100.00;100857.84;5033173;28;20102;-70
2022/12/29 01:21:33;;;;;;;18.60;9.40;;;;;;;4.73;100.00;100709.47;5032755;28;20435;-71
2022/12/29 01:23:58;;;;;;;16.05;9.07;;;;;;;5.70;100.00;100849.56;5032971;28;20049;-71
2022/12/29 01:26:23;;;;;;;18.15;10.25;;;;;;;5.65;100.00;100837.75;5032756;28;20042;-71
2022/12/29 01:28:51;;;;;;;18.38;10.88;;;;;;;5.35;100.00;100802.28;5032878;28;20492;-71
2022/12/29 01:31:16;;;;;;;19.48;10.77;;;;;;;5.13;100.00;100771.88;5014780;28;20037;-71
2022/12/29 01:33:43;;;;;;;19.98;10.07;;;;;;;5.63;100.00;100852.88;5032392;28;20042;-71
2022/12/29 01:36:12;;;;;;;17.38;10.38;;;;;;;5.77;100.00;100858.00;5014918;28;20132;-72
2022/12/29 01:38:38;;;;;;;18.67;10.30;;;;;;;5.19;100.00;100792.06;5033120;28;20511;-71
2022/12/29 01:41:05;;;;;;;18.45;9.82;;;;;;;4.94;100.00;100769.22;5015195;28;20040;-71
2022/12/29 01:43:42;;;;;;;21.25;9.93;;;;;;;5.54;100.00;100854.50;5032770;28;20409;-71
2022/12/29 01:46:31;;;;;;;15.30;9.52;;;;;;;5.54;100.00;100845.25;5033551;28;20033;-71
2022/12/29 01:49:10;;;;;;;17.77;9.65;;;;;;;5.73;100.00;100842.00;5032999;28;20022;-71
2022/12/29 01:51:40;;;;;;;17.75;10.05;;;;;;;5.85;100.00;100823.59;5032484;28;20034;-70
2022/12/29 01:54:11;;;;;;;19.00;10.50;;;;;;;5.22;100.00;100736.66;5032837;28;20060;-72
2022/12/29 01:56:36;;;;;;;26.00;13.02;;;;;;;5.70;100.00;100826.88;5032811;28;20037;-70
2022/12/29 01:59:12;;;;;;;23.13;13.48;;;;;;;5.41;100.00;100787.19;5032123;28;20164;-70
2022/12/29 02:01:37;;;;;;;31.45;16.85;;;;;;;5.54;100.00;100849.44;5032508;28;20049;-71
2022/12/29 02:04:03;;;;;;;24.73;16.20;;;;;;;5.36;100.00;100756.91;5031787;28;20397;-71
2022/12/29 02:06:40;;;;;;;23.08;15.52;;;;;;;5.20;100.00;100750.94;5032395;28;20054;-71
2022/12/29 02:09:06;;;;;;;23.80;14.65;;;;;;;4.89;100.00;100690.28;5032323;28;20034;-72
2022/12/29 02:11:31;;;;;;;28.15;15.15;;;;;;;5.06;100.00;100765.13;5013872;28;20048;-71
2022/12/29 02:13:57;;;;;;;28.33;14.10;;;;;;;5.41;100.00;100843.47;5031697;28;20486;-70
2022/12/29 02:16:41;;;;;;;20.77;12.93;;;;;;;5.31;100.00;100834.16;5013797;28;20520;-71
2022/12/29 02:19:37;;;;;;;21.95;10.23;;;;;;;5.56;100.00;100822.56;5014376;28;20132;-71
2022/12/29 02:22:41;;;;;;;25.50;14.82;;;;;;;5.43;100.00;100823.34;5032453;28;20048;-71
2022/12/29 02:25:27;;;;;;;26.70;14.93;;;;;;;5.34;100.00;100820.75;5031752;28;20103;-71
2022/12/29 02:28:08;;;;;;;21.40;12.15;;;;;;;5.42;100.00;100819.13;5031935;28;20045;-70
2022/12/29 02:30:46;;;;;;;25.35;11.90;;;;;;;5.36;100.00;100819.06;5031371;28;20064;-70
2022/12/29 02:33:42;;;;;;;24.58;12.75;;;;;;;5.39;100.00;100819.13;5031757;28;20046;-70
2022/12/29 02:36:19;;;;;;;33.30;14.45;;;;;;;5.47;100.00;100810.75;5013861;28;20048;-70
2022/12/29 02:39:00;;;;;;;25.08;13.43;;;;;;;5.15;100.00;100745.00;5031712;28;20033;-71
2022/12/29 02:41:43;;;;;;;25.42;13.90;;;;;;;5.71;100.00;100805.00;5031646;28;20029;-70
2022/12/29 02:44:32;;;;;;;22.23;13.27;;;;;;;5.20;100.00;100729.94;5031462;28;20030;-71
2022/12/29 02:47:22;;;;;;;25.17;13.13;;;;;;;5.16;100.00;100730.75;5013097;28;20044;-72
2022/12/29 02:49:57;;;;;;;24.15;12.95;;;;;;;5.17;100.00;100704.69;5031548;28;20182;-70
2022/12/29 02:52:31;;;;;;;27.90;14.45;;;;;;;5.32;100.00;100809.81;5031701;28;20090;-71
2022/12/29 02:54:58;;;;;;;23.17;13.93;;;;;;;5.71;100.00;100787.31;5031255;28;20041;-71
2022/12/29 02:57:26;;;;;;;23.50;13.90;;;;;;;5.69;100.00;100799.09;5031703;28;20516;-71
2022/12/29 03:00:12;;;;;;;24.50;14.85;;;;;;;5.60;100.00;100794.00;5031262;28;20061;-71
2022/12/29 03:03:00;;;;;;;25.67;14.40;;;;;;;5.63;100.00;100783.94;5031555;28;20037;-70
2022/12/29 03:05:44;;;;;;;23.23;12.95;;;;;;;5.54;100.00;100789.78;5031225;28;20081;-71
2022/12/29 03:08:39;;;;;;;22.17;12.40;;;;;;;5.22;100.00;100781.19;5013519;28;20389;-71
2022/12/29 03:12:07;;;;;;;18.38;11.73;;;;;;;5.43;100.00;100780.47;5031734;28;20039;-76
2022/12/29 03:17:25;;;;;;;19.90;10.65;;;;;;;5.12;100.00;100775.25;5031472;28;20092;-73
2022/12/29 03:19:57;;;;;;;19.80;10.80;;;;;;;4.79;100.00;100701.97;5031408;28;20040;-72
2022/12/29 03:22:31;;;;;;;17.60;10.77;;;;;;;4.87;100.00;100699.50;5013170;28;20049;-71
2022/12/29 03:25:24;;;;;;;22.30;13.07;;;;;;;4.69;100.00;100701.88;5030918;28;20042;-71
2022/12/29 03:27:55;;;;;;;21.52;12.07;;;;;;;5.32;100.00;100767.81;5031528;28;20068;-71
2022/12/29 03:30:21;;;;;;;16.67;8.63;;;;;;;5.33;100.00;100777.03;5030705;28;20049;-70
2022/12/29 03:32:57;;;;;;;19.65;11.05;;;;;;;4.91;100.00;100691.94;5030893;28;20076;-71
2022/12/29 03:35:27;;;;;;;22.10;13.02;;;;;;;5.04;100.00;100749.16;5013285;28;20041;-71
2022/12/29 03:37:59;;;;;;;22.00;13.18;;;;;;;4.96;100.00;100692.84;5030909;28;20038;-70
2022/12/29 03:40:27;;;;;;;23.40;12.20;;;;;;;4.90;100.00;100712.94;5013242;28;20080;-70
2022/12/29 03:42:53;;;;;;;23.33;14.60;;;;;;;5.15;100.00;100770.22;5030920;28;20103;-70
2022/12/29 03:45:19;;;;;;;22.73;14.38;;;;;;;5.07;100.00;100761.75;5030043;28;20496;-71
2022/12/29 03:47:45;;;;;;;16.83;8.68;;;;;;;4.70;100.00;100674.19;5012694;28;20045;-71
2022/12/29 03:50:12;;;;;;;16.52;9.38;;;;;;;5.04;100.00;100781.91;5030538;28;20131;-71
2022/12/29 03:52:37;;;;;;;20.33;10.45;;;;;;;5.02;100.00;100732.31;5031179;28;20037;-71
2022/12/29 03:55:03;;;;;;;13.60;9.10;;;;;;;4.71;100.00;100713.66;5012684;28;20041;-70
2022/12/29 03:57:29;;;;;;;20.50;11.23;;;;;;;5.17;100.00;100765.16;5014903;28;20060;-69
2022/12/29 03:59:54;;;;;;;20.70;12.38;;;;;;;5.05;100.00;100763.41;5034806;28;20053;-70
2022/12/29 04:02:19;;;;;;;17.00;10.68;;;;;;;4.71;100.00;100774.09;5033931;28;20057;-70
2022/12/29 04:04:45;;;;;;;21.50;10.15;;;;;;;4.59;100.00;100680.84;5034296;28;20038;-71
2022/12/29 04:07:10;;;;;;;16.98;10.38;;;;;;;5.08;100.00;100788.66;5016471;28;20059;-70
2022/12/29 04:09:35;;;;;;;18.80;8.35;;;;;;;4.90;100.00;100780.09;5016910;28;20128;-70
2022/12/29 04:12:01;;;;;;;13.75;7.95;;;;;;;4.92;100.00;100780.97;5016603;28;20531;-70
2022/12/29 04:14:26;;;;;;;15.38;8.23;;;;;;;3.80;100.00;100644.09;5034155;28;20064;-70
2022/12/29 04:16:52;;;;;;;18.50;8.88;;;;;;;4.72;100.00;100780.81;5034153;28;20041;-70
2022/12/29 04:19:17;;;;;;;23.63;12.80;;;;;;;4.56;100.00;100773.94;5016512;28;20037;-70
2022/12/29 04:21:43;;;;;;;18.92;12.85;;;;;;;4.31;100.00;100694.03;5033864;28;20437;-70
2022/12/29 04:24:08;;;;;;;20.83;12.50;;;;;;;4.58;100.00;100787.38;5034131;28;20415;-71
2022/12/29 04:26:34;;;;;;;17.83;10.80;;;;;;;4.58;100.00;100767.25;5016113;28;20048;-70
2022/12/29 04:28:59;;;;;;;22.60;10.85;;;;;;;4.04;100.00;100712.19;5033796;28;20128;-70
2022/12/29 04:31:24;;;;;;;22.00;10.45;;;;;;;4.06;100.00;100709.72;5033534;28;20048;-72
2022/12/29 04:33:50;;;;;;;18.95;10.80;;;;;;;4.04;100.00;100694.59;5033975;28;20466;-72
2022/12/29 04:36:15;;;;;;;23.50;10.80;;;;;;;4.35;100.00;100777.13;5033967;28;20045;-71
2022/12/29 04:38:41;;;;;;;23.30;12.07;;;;;;;4.52;100.00;100789.00;5033903;28;20041;-72
2022/12/29 04:41:07;;;;;;;27.27;12.55;;;;;;;4.10;100.00;100739.13;5016295;28;20037;-70
2022/12/29 04:43:32;;;;;;;19.90;11.15;;;;;;;4.38;100.00;100757.00;5033826;28;20044;-70
2022/12/29 04:45:57;;;;;;;18.52;11.38;;;;;;;4.48;100.00;100754.59;5033530;28;20042;-72
2022/12/29 04:48:23;;;;;;;19.67;12.20;;;;;;;4.00;100.00;100720.53;5033365;28;20199;-72
2022/12/29 04:50:49;;;;;;;22.17;12.65;;;;;;;4.38;100.00;100811.50;5016169;28;20026;-71
2022/12/29 04:53:16;;;;;;;23.27;13.48;;;;;;;3.86;100.00;100738.84;5033960;28;20034;-71
2022/12/29 04:55:42;;;;;;;29.33;15.00;;;;;;;3.38;100.00;100654.53;5033454;28;20049;-76
2022/12/29 04:58:07;;;;;;;27.33;15.13;;;;;;;4.07;100.00;100796.94;5033793;28;20034;-72
2022/12/29 05:00:32;;;;;;;25.48;15.02;;;;;;;3.30;100.00;100673.69;5016022;28;20114;-72
2022/12/29 05:02:59;;;;;;;28.83;18.95;;;;;;;4.19;100.00;100795.41;5033798;28;20044;-72
2022/12/29 05:05:24;;;;;;;32.03;21.30;;;;;;;3.71;100.00;100700.94;5033495;28;20041;-71
2022/12/29 05:07:50;;;;;;;34.15;21.90;;;;;;;4.12;100.00;100770.97;5033277;28;20041;-70
2022/12/29 05:10:15;;;;;;;33.50;21.92;;;;;;;4.19;100.00;100794.53;5032690;28;20029;-71
2022/12/29 05:12:41;;;;;;;32.58;22.38;;;;;;;4.11;100.00;100798.66;5033352;28;20037;-71
2022/12/29 05:15:07;;;;;;;30.17;19.75;;;;;;;3.95;100.00;100718.81;5033515;28;20048;-71
2022/12/29 05:18:19;;;;;;;44.13;25.80;;;;;;;4.23;100.00;100788.72;5032637;28;20045;-71
2022/12/29 05:20:46;;;;;;;40.08;25.17;;;;;;;4.13;100.00;100775.19;5032833;28;20519;-71
2022/12/29 05:23:11;;;;;;;37.15;23.45;;;;;;;3.74;100.00;100728.66;5033000;28;20073;-72
2022/12/29 05:25:37;;;;;;;31.92;21.33;;;;;;;4.27;100.00;100772.81;5032973;28;20079;-71
2022/12/29 05:28:06;;;;;;;39.83;25.40;;;;;;;3.66;100.00;100708.44;5015600;28;20612;-71
2022/12/29 05:30:32;;;;;;;79.32;49.67;;;;;;;3.43;100.00;100722.38;5033457;28;20029;-72
2022/12/29 05:32:57;;;;;;;62.60;43.90;;;;;;;4.10;100.00;100779.38;5032589;28;20079;-72
2022/12/29 05:35:22;;;;;;;61.35;41.58;;;;;;;3.98;100.00;100780.03;5015156;28;20040;-71
2022/12/29 05:37:48;;;;;;;66.57;43.42;;;;;;;3.32;100.00;100696.31;5015229;28;20038;-71
2022/12/29 05:40:13;;;;;;;59.08;38.00;;;;;;;2.88;100.00;100659.69;5032874;28;20045;-72
2022/12/29 05:42:39;;;;;;;48.20;33.80;;;;;;;3.53;100.00;100715.00;5033124;28;20510;-72
2022/12/29 05:45:06;;;;;;;47.25;32.80;;;;;;;3.31;100.00;100713.03;5032488;28;20500;-71
2022/12/29 05:47:32;;;;;;;51.38;36.42;;;;;;;3.75;100.00;100800.72;5033303;28;20113;-71
2022/12/29 05:49:58;;;;;;;54.17;37.22;;;;;;;3.23;100.00;100726.31;5032921;28;20420;-70
2022/12/29 05:52:42;;;;;;;55.53;36.72;;;;;;;3.82;100.00;100800.84;5014949;28;20095;-71
2022/12/29 05:55:07;;;;;;;50.50;33.42;;;;;;;2.96;100.00;100730.94;5033023;28;20039;-71
2022/12/29 05:57:33;;;;;;;49.22;32.25;;;;;;;3.61;100.00;100800.53;5032406;28;20124;-70
2022/12/29 05:59:58;;;;;;;44.72;27.98;;;;;;;3.10;100.00;100715.28;5032246;28;20053;-71
2022/12/29 06:02:24;;;;;;;35.67;23.83;;;;;;;3.35;100.00;100742.41;5032411;28;20476;-71
2022/12/29 06:04:49;;;;;;;31.35;22.38;;;;;;;3.29;100.00;100731.41;5032658;28;20046;-72
2022/12/29 06:07:15;;;;;;;24.98;17.50;;;;;;;3.69;100.00;100783.03;5032002;28;20498;-73
2022/12/29 06:09:40;;;;;;;28.67;17.08;;;;;;;3.84;100.00;100804.22;5032570;28;20033;-71
2022/12/29 06:12:06;;;;;;;26.92;17.92;;;;;;;3.41;100.00;100764.25;5032098;28;20099;-71
2022/12/29 06:14:31;;;;;;;22.85;16.63;;;;;;;3.73;100.00;100800.72;5032268;28;20128;-71
2022/12/29 06:16:56;;;;;;;31.60;19.15;;;;;;;3.71;100.00;100794.81;5031934;28;20100;-72
2022/12/29 06:19:22;;;;;;;29.70;22.40;;;;;;;3.53;100.00;100748.50;5032262;28;20033;-72
2022/12/29 06:21:47;;;;;;;44.45;29.48;;;;;;;3.64;100.00;100794.72;5031822;28;20045;-71
2022/12/29 06:24:13;;;;;;;49.17;35.22;;;;;;;3.85;100.00;100790.81;5031759;28;20044;-71
2022/12/29 06:26:39;;;;;;;55.13;38.47;;;;;;;3.37;100.00;100725.69;5032166;28;20038;-71
2022/12/29 06:29:07;;;;;;;57.92;42.60;;;;;;;3.84;100.00;100766.50;5031996;28;20104;-71
2022/12/29 06:31:33;;;;;;;59.08;44.53;;;;;;;3.90;100.00;100725.47;5032005;28;20491;-71
2022/12/29 06:33:58;;;;;;;60.42;44.45;;;;;;;3.84;100.00;100690.22;5031506;28;20037;-71
2022/12/29 06:36:24;;;;;;;56.40;39.85;;;;;;;4.27;100.00;100798.00;5031538;28;20592;-71
2022/12/29 06:38:52;;;;;;;56.80;37.70;;;;;;;4.64;100.00;100791.63;5031389;28;20091;-74
2022/12/29 06:41:18;;;;;;;54.55;37.65;;;;;;;5.20;100.00;100782.84;5014375;28;20038;-71
2022/12/29 06:43:43;;;;;;;49.50;34.15;;;;;;;5.96;100.00;100695.81;5031360;28;20434;-70
2022/12/29 06:46:08;;;;;;;46.05;33.38;;;;;;;5.59;100.00;100712.47;5031274;28;20120;-71
2022/12/29 06:48:34;;;;;;;49.05;34.38;;;;;;;7.03;100.00;100780.03;5013225;28;20033;-70
2022/12/29 06:50:59;;;;;;;115.90;79.32;;;;;;;7.42;100.00;100779.16;5013648;28;20510;-70
2022/12/29 06:53:25;;;;;;;91.57;57.78;;;;;;;7.37;100.00;100783.38;5030729;28;20404;-70
2022/12/29 06:55:50;;;;;;;60.65;44.13;;;;;;;7.75;100.00;100768.94;5013421;28;20419;-70
2022/12/29 06:58:15;;;;;;;71.53;49.38;;;;;;;7.18;100.00;100660.38;5013499;28;20057;-71
2022/12/29 07:00:41;;;;;;;57.88;43.00;;;;;;;7.30;100.00;100755.56;5010250;28;20141;-70
2022/12/29 07:03:06;;;;;;;54.38;37.70;;;;;;;8.02;100.00;100744.34;4993853;28;20033;-71
2022/12/29 07:05:32;;;;;;;53.95;38.72;;;;;;;7.79;100.00;100767.22;4993692;28;20045;-70
2022/12/29 07:07:58;;;;;;;49.92;39.03;;;;;;;6.05;100.00;100785.00;4993764;28;20037;-70
2022/12/29 07:10:24;;;;;;;60.42;45.25;;;;;;;6.05;100.00;100853.13;5011306;28;20124;-70
2022/12/29 07:12:49;;;;;;;59.40;43.53;;;;;;;6.08;100.00;100864.94;5010610;28;20128;-71
2022/12/29 07:15:16;;;;;;;65.93;45.95;;;;;;;6.09;100.00;100861.56;5011341;28;20137;-71
2022/12/29 07:17:41;;;;;;;83.78;55.88;;;;;;;6.35;100.00;100832.19;5011120;28;20030;-71
2022/12/29 07:20:07;;;;;;;88.40;60.45;;;;;;;5.99;100.00;100804.31;5011246;28;20044;-71
2022/12/29 07:22:33;;;;;;;75.22;52.75;;;;;;;5.93;100.00;100779.91;5010976;28;20053;-71
2022/12/29 07:24:58;;;;;;;47.67;33.67;;;;;;;5.94;100.00;100784.09;5011766;28;20060;-72
2022/12/29 07:27:24;;;;;;;42.30;29.20;;;;;;;6.48;100.00;100866.75;5011123;28;20042;-72
2022/12/29 07:29:49;;;;;;;54.38;38.45;;;;;;;6.43;100.00;100867.56;4994347;28;20041;-71
2022/12/29 07:32:15;;;;;;;52.05;34.17;;;;;;;6.30;100.00;100800.22;5014675;28;20072;-72
2022/12/29 07:34:40;;;;;;;41.55;29.38;;;;;;;6.34;100.00;100814.53;5016881;28;20026;-72
2022/12/29 07:37:06;;;;;;;33.15;24.13;;;;;;;6.17;100.00;100791.75;5017538;28;20472;-72
2022/12/29 07:39:31;;;;;;;36.20;22.95;;;;;;;6.05;100.00;100794.25;5018174;28;20635;-72
2022/12/29 07:41:57;;;;;;;32.58;21.52;;;;;;;6.12;100.00;100806.03;5017975;28;20037;-72
2022/12/29 07:44:22;;;;;;;28.52;18.50;;;;;;;6.68;100.00;100865.13;5017637;28;20042;-71
2022/12/29 07:46:47;;;;;;;26.65;16.70;;;;;;;6.46;100.00;100781.69;4999917;28;20511;-70
2022/12/29 07:49:13;;;;;;;24.10;14.88;;;;;;;6.32;100.00;100799.34;5000273;28;20483;-71
2022/12/29 07:51:38;;;;;;;24.20;14.65;;;;;;;7.03;100.00;100855.06;5016920;28;20038;-70
2022/12/29 07:54:04;;;;;;;23.23;14.82;;;;;;;7.18;100.00;100774.16;4999901;28;20124;-73
2022/12/29 07:56:29;;;;;;;23.00;12.52;;;;;;;8.58;100.00;100823.41;5017719;28;20030;-68
2022/12/29 07:58:55;;;;;;;23.48;13.43;;;;;;;9.15;100.00;100739.25;5017483;28;20113;-70
2022/12/29 08:01:21;;;;;;;24.15;15.20;;;;;;;8.31;100.00;100801.63;5034017;28;20099;-72
2022/12/29 08:03:46;;;;;;;23.80;13.57;;;;;;;7.35;100.00;100761.47;5019547;28;20116;-71
2022/12/29 08:06:13;;;;;;;20.27;13.57;;;;;;;6.38;100.00;100811.19;5037042;28;20052;-71
2022/12/29 08:08:38;;;;;;;23.42;15.98;;;;;;;6.12;100.00;100771.53;5037339;28;20038;-72
2022/12/29 08:11:04;;;;;;;24.70;14.20;;;;;;;6.57;100.00;100807.84;5019488;28;20048;-71
2022/12/29 08:13:29;;;;;;;19.60;11.77;;;;;;;6.56;100.00;100794.34;5037474;28;20384;-69
2022/12/29 08:15:55;;;;;;;19.55;11.48;;;;;;;6.69;100.00;100866.81;5037143;28;20048;-71
2022/12/29 08:18:20;;;;;;;33.90;22.15;;;;;;;6.65;100.00;100812.06;5018732;28;20419;-72
2022/12/29 08:20:45;;;;;;;33.30;22.63;;;;;;;7.28;100.00;100886.22;5037411;28;20489;-70
2022/12/29 08:23:11;;;;;;;20.75;12.38;;;;;;;5.99;100.00;100801.78;5036367;28;20049;-70
2022/12/29 08:25:36;;;;;;;32.53;17.85;;;;;;;6.10;100.00;100790.06;5037136;28;20419;-70
2022/12/29 08:28:02;;;;;;;30.45;18.15;;;;;;;6.74;100.00;100859.22;5036434;28;20056;-70
2022/12/29 08:30:27;;;;;;;24.17;15.07;;;;;;;6.33;100.00;100816.22;5037055;28;20448;-74
2022/12/29 08:32:52;;;;;;;22.85;14.77;;;;;;;6.76;100.00;100871.03;5019411;28;20045;-71
2022/12/29 08:35:18;;;;;;;23.50;13.90;;;;;;;6.69;100.00;100863.44;5036471;28;20053;-71
2022/12/29 08:37:43;;;;;;;18.60;11.77;;;;;;;7.07;100.00;100873.59;5019178;28;20041;-70
2022/12/29 08:40:09;;;;;;;21.73;14.57;;;;;;;6.95;100.00;100857.56;5037142;28;20183;-70
2022/12/29 08:42:34;;;;;;;19.50;13.02;;;;;;;7.03;100.00;100839.91;5036872;28;20123;-70
2022/12/29 08:45:00;;;;;;;23.55;12.93;;;;;;;7.07;100.00;100831.47;5033910;28;20507;-71
2022/12/29 08:47:26;;;;;;;21.25;12.13;;;;;;;6.31;100.00;100780.00;5034452;28;20415;-70
2022/12/29 08:49:52;;;;;;;17.30;10.90;;;;;;;6.48;100.00;100801.06;5033104;28;20033;-70
2022/12/29 08:52:18;;;;;;;18.80;11.07;;;;;;;6.65;100.00;100829.75;5033393;28;20462;-70
2022/12/29 08:54:43;;;;;;;21.95;11.38;;;;;;;6.77;100.00;100811.22;5015771;28;20049;-69
2022/12/29 08:57:09;;;;;;;19.70;12.25;;;;;;;6.83;100.00;100759.00;5033187;28;20496;-69
2022/12/29 08:59:34;;;;;;;17.10;10.88;;;;;;;6.99;100.00;100821.34;5014783;28;20044;-69
2022/12/29 09:02:01;;;;;;;16.35;10.45;;;;;;;6.78;100.00;100699.19;5033048;28;20037;-71
2022/12/29 09:04:27;;;;;;;99.25;73.00;;;;;;;7.29;100.00;100819.66;5033288;28;20500;-69
2022/12/29 09:06:52;;;;;;;129.85;84.15;;;;;;;7.14;100.00;100764.03;5014896;28;20052;-70
2022/12/29 09:09:18;;;;;;;36.13;21.25;;;;;;;7.33;100.00;100746.28;5032802;28;20041;-70
2022/12/29 09:11:44;;;;;;;32.03;18.23;;;;;;;7.93;100.00;100832.97;5032745;28;20041;-69
2022/12/29 09:14:09;;;;;;;48.15;25.42;;;;;;;6.87;100.00;100760.69;5015401;28;20042;-69
2022/12/29 09:16:35;;;;;;;67.80;35.35;;;;;;;7.18;100.00;100758.13;5031712;28;20072;-69
2022/12/29 09:19:02;;;;;;;35.50;21.10;;;;;;;7.32;100.00;100759.78;5014907;28;20033;-71
2022/12/29 09:21:27;;;;;;;51.17;29.67;;;;;;;7.62;100.00;100812.00;5015011;28;20416;-69
2022/12/29 09:23:53;;;;;;;35.03;21.85;;;;;;;7.61;100.00;100825.47;5032721;28;20071;-70
2022/12/29 09:26:18;;;;;;;23.40;12.07;;;;;;;7.54;100.00;100817.09;5032547;28;20033;-70
2022/12/29 09:28:44;;;;;;;19.98;10.38;;;;;;;7.58;100.00;100798.50;5032869;28;20488;-70
2022/12/29 09:31:10;;;;;;;19.45;10.15;;;;;;;7.79;100.00;100783.25;5032797;28;20392;-70
2022/12/29 09:33:35;;;;;;;20.60;10.63;;;;;;;7.79;100.00;100805.19;5014715;28;20124;-70
2022/12/29 09:36:01;;;;;;;18.42;11.07;;;;;;;7.57;100.00;100730.19;5015327;28;20037;-70
2022/12/29 09:38:27;;;;;;;21.95;11.43;;;;;;;8.12;100.00;100794.91;5014424;28;20191;-70
2022/12/29 09:41:20;;;;;;;26.00;13.90;;;;;;;8.21;100.00;100799.94;5015216;28;20045;-70
2022/12/29 09:43:49;;;;;;;19.50;10.85;;;;;;;8.08;100.00;100815.22;5033025;28;20034;-70
2022/12/29 09:46:24;;;;;;;35.97;20.58;;;;;;;8.34;100.00;100796.50;5015057;28;20120;-71
2022/12/29 09:49:07;;;;;;;48.55;24.60;;;;;;;8.33;100.00;100761.06;5032460;28;20040;-69
2022/12/29 09:51:36;;;;;;;21.75;11.93;;;;;;;7.96;100.00;100708.94;5032411;28;20044;-70
2022/12/29 09:54:34;;;;;;;19.50;12.40;;;;;;;8.28;100.00;100712.97;5032818;28;20523;-69
2022/12/29 09:57:00;;;;;;;19.10;12.52;;;;;;;8.48;100.00;100794.75;5032476;28;20429;-69
2022/12/29 09:59:37;;;;;;;21.25;13.57;;;;;;;8.39;100.00;100781.28;5032199;28;20034;-70
2022/12/29 10:02:15;;;;;;;21.23;13.18;;;;;;;8.66;100.00;100787.03;5032484;28;20037;-71
2022/12/29 10:04:43;;;;;;;27.98;15.63;;;;;;;8.77;100.00;100781.03;5032161;28;20040;-70
2022/12/29 10:07:31;;;;;;;25.15;15.48;;;;;;;9.25;100.00;100773.81;5032080;28;20037;-70
2022/12/29 10:10:03;;;;;;;22.33;14.65;;;;;;;9.15;100.00;100791.69;5031576;28;20037;-70
2022/12/29 10:12:31;;;;;;;19.27;13.07;;;;;;;8.62;100.00;100714.41;5032163;28;20488;-70
2022/12/29 10:15:00;;;;;;;19.40;12.95;;;;;;;9.04;100.00;100794.31;5031900;28;20471;-69
2022/12/29 10:17:48;;;;;;;29.48;15.55;;;;;;;8.85;100.00;100691.41;5032503;28;20052;-70
2022/12/29 10:20:38;;;;;;;21.35;13.68;;;;;;;9.23;100.00;100762.03;5031827;28;20047;-70
2022/12/29 10:23:26;;;;;;;19.23;14.63;;;;;;;8.89;100.00;100796.16;5031746;28;20124;-70
2022/12/29 10:25:54;;;;;;;22.60;16.02;;;;;;;8.84;100.00;100780.13;5013915;28;20033;-70
2022/12/29 10:28:34;;;;;;;19.58;15.02;;;;;;;8.73;100.00;100745.56;5032047;28;20412;-70
2022/12/29 10:31:01;;;;;;;22.88;17.45;;;;;;;9.19;100.00;100757.84;5031379;28;20512;-69
2022/12/29 10:33:35;;;;;;;21.15;15.88;;;;;;;9.05;100.00;100777.41;5013178;28;20044;-69
2022/12/29 10:36:11;;;;;;;20.63;15.82;;;;;;;9.20;100.00;100789.94;5031207;28;20116;-70
2022/12/29 10:39:11;;;;;;;22.55;15.73;;;;;;;9.37;100.00;100780.47;5031147;28;20033;-70
2022/12/29 10:42:04;;;;;;;22.40;16.50;;;;;;;8.92;100.00;100715.81;5031443;28;20123;-69
2022/12/29 10:44:31;;;;;;;25.48;18.50;;;;;;;9.00;100.00;100700.53;5023258;28;20068;-69
2022/12/29 10:47:05;;;;;;;29.05;20.23;;;;;;;9.60;100.00;100784.47;5030619;28;20068;-70
2022/12/29 10:49:35;;;;;;;24.75;19.95;;;;;;;9.04;100.00;100710.63;5013730;28;20041;-69
2022/12/29 10:52:03;;;;;;;27.70;18.67;;;;;;;8.90;100.00;100720.06;5013850;28;20060;-70
2022/12/29 10:54:44;;;;;;;26.17;17.85;;;;;;;9.55;100.00;100787.88;5030787;28;20038;-69
2022/12/29 10:57:21;;;;;;;42.65;25.17;;;;;;;8.70;100.00;100641.66;5030766;28;20045;-69
2022/12/29 10:59:46;;;;;;;29.33;19.65;;;;;;;9.69;100.00;100782.66;5030439;28;20179;-69
2022/12/29 11:02:22;;;;;;;31.67;18.60;;;;;;;9.50;100.00;100782.88;5030429;28;20124;-69
2022/12/29 11:05:15;;;;;;;25.00;17.05;;;;;;;9.78;100.00;100777.50;5012692;28;20045;-69
2022/12/29 11:07:41;;;;;;;22.67;17.65;;;;;;;9.50;100.00;100780.34;5029764;28;20408;-70
2022/12/29 11:10:36;;;;;;;22.15;18.02;;;;;;;9.78;100.00;100780.03;5031118;28;20034;-70
2022/12/29 11:13:15;;;;;;;22.50;17.75;;;;;;;8.95;100.00;100680.31;5030975;28;20411;-69
2022/12/29 11:15:43;;;;;;;24.48;17.17;;;;;;;9.26;100.00;100696.03;5013017;28;20042;-71
2022/12/29 11:18:19;;;;;;;26.33;17.40;;;;;;;9.60;100.00;100687.16;5031322;28;20044;-69
2022/12/29 11:20:44;;;;;;;25.65;18.50;;;;;;;9.68;100.00;100702.28;5031201;28;20053;-70
2022/12/29 11:23:36;;;;;;;40.35;25.67;;;;;;;10.15;100.00;100761.78;5031194;28;20029;-69
2022/12/29 11:26:13;;;;;;;45.30;30.15;;;;;;;10.33;100.00;100770.84;5030666;28;20056;-70
2022/12/29 11:28:40;;;;;;;28.02;21.10;;;;;;;9.77;100.00;100689.47;5013532;28;20738;-70
2022/12/29 11:31:07;;;;;;;43.70;37.20;;;;;;;10.29;100.00;100781.94;5030474;28;20041;-71
2022/12/29 11:33:35;;;;;;;30.17;20.35;;;;;;;9.91;100.00;100702.81;5030272;28;20037;-71
2022/12/29 11:36:11;;;;;;;27.25;18.65;;;;;;;10.31;100.00;100773.44;5030840;28;20053;-70
2022/12/29 11:38:40;;;;;;;22.90;16.23;;;;;;;10.46;100.00;100757.94;5030846;28;20045;-70
2022/12/29 11:41:10;;;;;;;24.88;18.90;;;;;;;10.32;100.00;100764.09;5030532;28;20037;-71
2022/12/29 11:43:43;;;;;;;24.45;17.33;;;;;;;10.43;100.00;100798.69;5012777;28;20046;-70
2022/12/29 11:46:16;;;;;;;35.95;30.52;;;;;;;10.02;100.00;100739.09;5030812;28;20029;-71
2022/12/29 11:48:42;;;;;;;22.60;17.55;;;;;;;10.24;100.00;100751.50;5031070;28;20073;-70
2022/12/29 11:51:09;;;;;;;20.55;16.73;;;;;;;10.61;100.00;100828.06;5030953;28;20056;-70
2022/12/29 11:53:49;;;;;;;23.98;20.23;;;;;;;10.37;100.00;100803.84;5012559;28;20423;-69
2022/12/29 11:56:17;;;;;;;21.48;16.65;;;;;;;10.15;100.00;100756.72;5035916;28;20047;-72